Terminal Aerodrome Forecast
Issued by NWS

Current Version | Previous Version | Text Only | Print | Product List | Glossary On
Versions: 1 2 3 4 5 6 7 8 9 10 11 12 13
507
FTUS45 KTWC 221128
TAFOLS
TAF
KOLS 221128Z 2212/2312 VRB03KT P6SM SKC
     FM221600 17012G21KT P6SM FEW100 SCT250
     FM222000 21021G30KT P6SM SCT100 SCT250
     FM230300 23010KT P6SM FEW100 SCT250=

USA.gov is the U.S. government's official web portal to all federal, state and local government web resources and services.